Waldport, OR

7:23 PM PDT on August 30, 2014 (GMT -0700)
Alsea Highlands | Change Station
CLOSE
Current Station
Personal Weather Station
Location: Waldport, OR
Elevation: 200 ft
Nearby Weather Stations

Elev 200 ft 44.44 °N, 124.07 °W | Updated 41 seconds ago

Partly Cloudy
Partly Cloudy
62.4 °F
Feels Like 62.4 °F
N
0.0
Wind Variable Wind from WSW
Gusts 1.0 mph

Today
High -- | Low -- °F
--% Chance of Precip.
Yesterday
High -- | Low -- °F
Precip. -- in
6:36 AM 7:55 PM
Waxing Crescent, 26% visible
Pressure 30.04 in
Visibility 5.0 miles
Clouds Clear
Dew Point 61 °F
Humidity 94%
Rainfall 0.15 in
Snow Depth Not available.
UV 0 out of 12
Pollen 3.00 out of 12
Air Quality Not available.
Flu Activity Not available.
METAR KONP 310215Z AUTO 00000KT 5SM BR CLR 16/15 A3004 RMK AO2

More Conditions Fewer Conditions

Pressure 30.04 in
Visibility 5.0 miles
Clouds Clear
Dew Point 61 °F
Humidity 94%
Rainfall 0.15 in
Snow Depth Not available.
UV 0 out of 12
Pollen 3.00 out of 12
Air Quality Not available.
Flu Activity Not available.
METAR KONP 310215Z AUTO 00000KT 5SM BR CLR 16/15 A3004 RMK AO2

More Conditions Fewer Conditions

10-Day Weather Forecast

Almanac

Astronomy

Aug. 30, 2014 Rise Set
Actual Time 6:36 AM PDT 7:55 PM PDT
Civil Twilight 6:06 AM PDT 8:25 PM PDT
Nautical Twilight 5:30 AM PDT 9:02 PM PDT
Astronomical Twilight 4:51 AM PDT 9:40 PM PDT
Moon 11:42 AM PDT (8/30) 10:20 PM PDT (8/30)
Length of Visible Light 14h 19m
Length of Day
13h 19m
Tomorrow will be 2m 57s shorter.
Waxing Crescent, 26% of the Moon is Illuminated
Today
Waxing Crescent
Sep 2
First Quarter
Sep 8
Full
Sep 15
Last Quarter
Sep 24
New

Today's Extremes

State Highs State Lows

Community

WunderPhotos

Upload Photos

1,748,749 photos uploaded!

Nearby

Snow Depth

Station Depth Elevation
Seine Creek 0 in 2000 ft
Holland Meadows 0 in 4900 ft
Daly Lake 0 in 3600 ft
Santiam Junction 0 in 3750 ft
Roaring River 0 in 4900 ft

Earthquake Activity

City Distance Mag. Time & Date
No recent earthquake activity has been reported nearby.
Minimum magnitude displayed is 2.5.

Coastal Water Temperatures

Place Temperature
South Beach, OR 54.0 °F
Charleston, OR 54.0 °F

Nearby Weather Stations